Cincinnati, Ohio
Traffic Map
Current Weather Conditions
Cincinnati, Ohio
Clear
Clear
-12°
Feels Like: -12°
Wind Chill: -12° Ceiling: Unl
Heat Index: -12° Visibility: 10mi
Dew Point: -14° Wind: 0mph
Humidity: 87% Direction: ° ()
Pressure: 30.52in Gusts: 0mph
Raw Report DataKLUK 140553Z AUTO 00000KT 10SM CLR M12/M14 A3052 RMK AO2 SLP344 T11221139 11089 21128 55006
Traffic Incident Summary
Active as of:
Severity:
Category:
InformationThere was an issue retrieving the traffic information for this location. Please try a different location or try again shortly.
Advertisements
Track Severe Weather on mobile